sensor_id;sensor_type;location;lat;lon;timestamp;P1;durP1;ratioP1;P2;durP2;ratioP2
41683;SDS011;27369;52.030;4.586;2022-10-15T00:01:28;46.58;;;32.17;;
41683;SDS011;27369;52.030;4.586;2022-10-15T00:03:53;55.97;;;33.10;;
41683;SDS011;27369;52.030;4.586;2022-10-15T00:06:19;52.30;;;32.47;;
41683;SDS011;27369;52.030;4.586;2022-10-15T00:08:45;51.78;;;33.00;;
41683;SDS011;27369;52.030;4.586;2022-10-15T00:11:19;51.95;;;32.88;;
41683;SDS011;27369;52.030;4.586;2022-10-15T00:13:47;56.05;;;33.60;;
41683;SDS011;27369;52.030;4.586;2022-10-15T00:16:16;52.30;;;34.05;;
41683;SDS011;27369;52.030;4.586;2022-10-15T00:18:45;52.53;;;33.47;;
41683;SDS011;27369;52.030;4.586;2022-10-15T00:21:11;48.90;;;32.85;;
41683;SDS011;27369;52.030;4.586;2022-10-15T00:23:39;54.95;;;34.30;;
41683;SDS011;27369;52.030;4.586;2022-10-15T00:26:08;48.05;;;33.25;;
41683;SDS011;27369;52.030;4.586;2022-10-15T00:28:35;52.20;;;32.50;;
41683;SDS011;27369;52.030;4.586;2022-10-15T00:31:07;49.95;;;32.05;;
41683;SDS011;27369;52.030;4.586;2022-10-15T00:33:34;48.20;;;31.92;;
41683;SDS011;27369;52.030;4.586;2022-10-15T00:36:04;47.20;;;33.80;;
41683;SDS011;27369;52.030;4.586;2022-10-15T00:38:33;51.33;;;32.45;;
41683;SDS011;27369;52.030;4.586;2022-10-15T00:51:30;48.88;;;32.90;;
41683;SDS011;27369;52.030;4.586;2022-10-15T00:54:03;50.85;;;32.70;;
41683;SDS011;27369;52.030;4.586;2022-10-15T00:56:29;48.22;;;32.78;;
41683;SDS011;27369;52.030;4.586;2022-10-15T00:58:57;51.58;;;33.67;;
41683;SDS011;27369;52.030;4.586;2022-10-15T01:01:23;50.28;;;33.38;;
41683;SDS011;27369;52.030;4.586;2022-10-15T01:06:15;51.83;;;32.60;;
41683;SDS011;27369;52.030;4.586;2022-10-15T01:08:41;49.15;;;33.80;;
41683;SDS011;27369;52.030;4.586;2022-10-15T01:13:50;55.95;;;33.60;;
41683;SDS011;27369;52.030;4.586;2022-10-15T01:16:38;54.20;;;35.00;;
41683;SDS011;27369;52.030;4.586;2022-10-15T01:31:10;54.85;;;35.88;;
41683;SDS011;27369;52.030;4.586;2022-10-15T01:34:00;54.17;;;35.53;;
41683;SDS011;27369;52.030;4.586;2022-10-15T01:37:07;53.67;;;35.95;;
41683;SDS011;27369;52.030;4.586;2022-10-15T01:39:38;62.70;;;38.25;;
41683;SDS011;27369;52.030;4.586;2022-10-15T01:42:14;58.03;;;37.28;;
41683;SDS011;27369;52.030;4.586;2022-10-15T01:44:44;53.90;;;38.65;;
41683;SDS011;27369;52.030;4.586;2022-10-15T01:47:19;56.95;;;38.40;;
41683;SDS011;27369;52.030;4.586;2022-10-15T01:49:50;60.38;;;38.58;;
41683;SDS011;27369;52.030;4.586;2022-10-15T01:52:20;56.55;;;39.05;;
41683;SDS011;27369;52.030;4.586;2022-10-15T01:54:51;62.95;;;40.30;;
41683;SDS011;27369;52.030;4.586;2022-10-15T01:57:18;56.50;;;38.28;;
41683;SDS011;27369;52.030;4.586;2022-10-15T01:59:46;61.10;;;40.60;;
41683;SDS011;27369;52.030;4.586;2022-10-15T02:02:11;63.00;;;41.30;;
41683;SDS011;27369;52.030;4.586;2022-10-15T02:07:06;58.10;;;38.47;;
41683;SDS011;27369;52.030;4.586;2022-10-15T02:09:56;56.13;;;39.33;;
41683;SDS011;27369;52.030;4.586;2022-10-15T02:15:04;59.17;;;41.15;;
41683;SDS011;27369;52.030;4.586;2022-10-15T02:17:49;61.28;;;40.13;;
41683;SDS011;27369;52.030;4.586;2022-10-15T02:20:19;59.72;;;39.88;;
41683;SDS011;27369;52.030;4.586;2022-10-15T02:22:54;63.47;;;39.90;;
41683;SDS011;27369;52.030;4.586;2022-10-15T02:25:34;58.30;;;39.53;;
41683;SDS011;27369;52.030;4.586;2022-10-15T02:28:03;59.30;;;39.85;;
41683;SDS011;27369;52.030;4.586;2022-10-15T02:30:29;60.50;;;40.25;;
41683;SDS011;27369;52.030;4.586;2022-10-15T02:32:57;57.63;;;39.67;;
41683;SDS011;27369;52.030;4.586;2022-10-15T02:35:23;62.03;;;39.47;;
41683;SDS011;27369;52.030;4.586;2022-10-15T02:37:52;55.65;;;38.38;;
41683;SDS011;27369;52.030;4.586;2022-10-15T02:40:22;56.75;;;37.80;;
41683;SDS011;27369;52.030;4.586;2022-10-15T02:42:51;57.30;;;38.95;;
41683;SDS011;27369;52.030;4.586;2022-10-15T02:45:17;61.00;;;39.22;;
41683;SDS011;27369;52.030;4.586;2022-10-15T02:47:44;58.70;;;39.42;;
41683;SDS011;27369;52.030;4.586;2022-10-15T02:50:09;63.03;;;40.17;;
41683;SDS011;27369;52.030;4.586;2022-10-15T02:52:34;64.00;;;39.67;;
41683;SDS011;27369;52.030;4.586;2022-10-15T02:55:00;59.67;;;39.90;;
41683;SDS011;27369;52.030;4.586;2022-10-15T02:57:25;58.00;;;38.50;;
41683;SDS011;27369;52.030;4.586;2022-10-15T02:59:51;65.88;;;40.20;;
41683;SDS011;27369;52.030;4.586;2022-10-15T03:02:16;62.67;;;39.97;;
41683;SDS011;27369;52.030;4.586;2022-10-15T03:04:42;54.63;;;36.92;;
41683;SDS011;27369;52.030;4.586;2022-10-15T03:07:07;59.65;;;37.92;;
41683;SDS011;27369;52.030;4.586;2022-10-15T03:09:32;55.97;;;37.10;;
41683;SDS011;27369;52.030;4.586;2022-10-15T03:11:58;62.40;;;40.45;;
41683;SDS011;27369;52.030;4.586;2022-10-15T03:14:23;59.53;;;38.30;;
41683;SDS011;27369;52.030;4.586;2022-10-15T03:16:48;60.33;;;37.45;;
41683;SDS011;27369;52.030;4.586;2022-10-15T03:19:14;66.65;;;39.72;;
41683;SDS011;27369;52.030;4.586;2022-10-15T03:21:40;58.47;;;36.78;;
41683;SDS011;27369;52.030;4.586;2022-10-15T03:24:06;65.75;;;39.50;;
41683;SDS011;27369;52.030;4.586;2022-10-15T03:26:31;64.28;;;38.65;;
41683;SDS011;27369;52.030;4.586;2022-10-15T03:28:56;71.13;;;40.13;;
41683;SDS011;27369;52.030;4.586;2022-10-15T03:31:22;64.53;;;41.30;;
41683;SDS011;27369;52.030;4.586;2022-10-15T03:33:47;69.93;;;39.85;;
41683;SDS011;27369;52.030;4.586;2022-10-15T03:36:13;69.75;;;40.38;;
41683;SDS011;27369;52.030;4.586;2022-10-15T03:38:38;60.38;;;38.42;;
41683;SDS011;27369;52.030;4.586;2022-10-15T03:41:03;60.53;;;38.38;;
41683;SDS011;27369;52.030;4.586;2022-10-15T03:43:29;63.88;;;41.00;;
41683;SDS011;27369;52.030;4.586;2022-10-15T03:45:55;70.82;;;41.20;;
41683;SDS011;27369;52.030;4.586;2022-10-15T03:48:20;71.30;;;39.30;;
41683;SDS011;27369;52.030;4.586;2022-10-15T03:50:46;68.75;;;42.00;;
41683;SDS011;27369;52.030;4.586;2022-10-15T03:53:11;75.15;;;42.20;;
41683;SDS011;27369;52.030;4.586;2022-10-15T03:55:37;72.85;;;41.90;;
41683;SDS011;27369;52.030;4.586;2022-10-15T03:58:02;74.80;;;41.60;;
41683;SDS011;27369;52.030;4.586;2022-10-15T04:00:28;77.57;;;42.13;;
41683;SDS011;27369;52.030;4.586;2022-10-15T04:02:54;79.20;;;43.63;;
41683;SDS011;27369;52.030;4.586;2022-10-15T04:05:19;82.60;;;44.00;;
41683;SDS011;27369;52.030;4.586;2022-10-15T04:07:45;75.60;;;43.10;;
41683;SDS011;27369;52.030;4.586;2022-10-15T04:10:10;83.57;;;44.60;;
41683;SDS011;27369;52.030;4.586;2022-10-15T04:12:35;78.68;;;46.05;;
41683;SDS011;27369;52.030;4.586;2022-10-15T04:15:01;74.25;;;43.35;;
41683;SDS011;27369;52.030;4.586;2022-10-15T04:17:27;79.15;;;46.05;;
41683;SDS011;27369;52.030;4.586;2022-10-15T04:19:52;83.28;;;47.42;;
41683;SDS011;27369;52.030;4.586;2022-10-15T04:22:17;80.63;;;45.97;;
41683;SDS011;27369;52.030;4.586;2022-10-15T04:24:43;72.60;;;45.97;;
41683;SDS011;27369;52.030;4.586;2022-10-15T04:27:09;75.53;;;45.90;;
41683;SDS011;27369;52.030;4.586;2022-10-15T04:29:36;70.53;;;46.20;;
41683;SDS011;27369;52.030;4.586;2022-10-15T04:32:01;74.53;;;45.35;;
41683;SDS011;27369;52.030;4.586;2022-10-15T04:34:26;66.07;;;45.50;;
41683;SDS011;27369;52.030;4.586;2022-10-15T04:36:52;70.60;;;43.80;;
41683;SDS011;27369;52.030;4.586;2022-10-15T04:39:17;66.53;;;42.20;;
41683;SDS011;27369;52.030;4.586;2022-10-15T04:41:43;62.10;;;43.42;;
41683;SDS011;27369;52.030;4.586;2022-10-15T04:44:08;62.60;;;42.67;;
41683;SDS011;27369;52.030;4.586;2022-10-15T04:46:34;63.90;;;42.60;;
41683;SDS011;27369;52.030;4.586;2022-10-15T04:48:59;60.17;;;40.80;;
41683;SDS011;27369;52.030;4.586;2022-10-15T04:51:25;56.50;;;40.80;;
41683;SDS011;27369;52.030;4.586;2022-10-15T04:53:50;60.78;;;42.30;;
41683;SDS011;27369;52.030;4.586;2022-10-15T04:56:17;65.97;;;44.55;;
41683;SDS011;27369;52.030;4.586;2022-10-15T04:58:45;61.20;;;43.72;;
41683;SDS011;27369;52.030;4.586;2022-10-15T05:01:13;63.75;;;43.17;;
41683;SDS011;27369;52.030;4.586;2022-10-15T05:03:40;68.50;;;45.78;;
41683;SDS011;27369;52.030;4.586;2022-10-15T05:06:09;67.80;;;44.63;;
41683;SDS011;27369;52.030;4.586;2022-10-15T05:08:36;69.82;;;46.90;;
41683;SDS011;27369;52.030;4.586;2022-10-15T05:11:06;70.60;;;45.83;;
41683;SDS011;27369;52.030;4.586;2022-10-15T05:13:33;75.82;;;46.00;;
41683;SDS011;27369;52.030;4.586;2022-10-15T05:16:13;73.75;;;46.42;;
41683;SDS011;27369;52.030;4.586;2022-10-15T05:18:45;72.45;;;45.75;;
41683;SDS011;27369;52.030;4.586;2022-10-15T05:21:13;70.40;;;45.80;;
41683;SDS011;27369;52.030;4.586;2022-10-15T05:23:39;73.67;;;44.57;;
41683;SDS011;27369;52.030;4.586;2022-10-15T05:26:06;75.55;;;45.22;;
41683;SDS011;27369;52.030;4.586;2022-10-15T05:28:35;77.25;;;45.42;;
41683;SDS011;27369;52.030;4.586;2022-10-15T05:31:05;80.22;;;46.47;;
41683;SDS011;27369;52.030;4.586;2022-10-15T05:33:34;77.32;;;44.85;;
41683;SDS011;27369;52.030;4.586;2022-10-15T05:36:13;72.88;;;42.70;;
41683;SDS011;27369;52.030;4.586;2022-10-15T05:38:44;75.00;;;41.88;;
41683;SDS011;27369;52.030;4.586;2022-10-15T05:41:10;71.25;;;41.72;;
41683;SDS011;27369;52.030;4.586;2022-10-15T05:43:35;72.50;;;41.85;;
41683;SDS011;27369;52.030;4.586;2022-10-15T05:46:01;74.60;;;42.35;;
41683;SDS011;27369;52.030;4.586;2022-10-15T05:48:26;66.82;;;40.53;;
41683;SDS011;27369;52.030;4.586;2022-10-15T05:50:52;71.65;;;41.95;;
41683;SDS011;27369;52.030;4.586;2022-10-15T05:53:17;64.85;;;39.45;;
41683;SDS011;27369;52.030;4.586;2022-10-15T05:55:43;63.13;;;38.50;;
41683;SDS011;27369;52.030;4.586;2022-10-15T05:58:08;65.25;;;40.85;;
41683;SDS011;27369;52.030;4.586;2022-10-15T06:00:34;66.45;;;40.72;;
41683;SDS011;27369;52.030;4.586;2022-10-15T06:02:59;58.85;;;35.90;;
41683;SDS011;27369;52.030;4.586;2022-10-15T06:05:25;55.40;;;35.60;;
41683;SDS011;27369;52.030;4.586;2022-10-15T06:07:50;53.97;;;34.33;;
41683;SDS011;27369;52.030;4.586;2022-10-15T06:10:16;51.45;;;33.05;;
41683;SDS011;27369;52.030;4.586;2022-10-15T06:12:42;47.65;;;31.20;;
41683;SDS011;27369;52.030;4.586;2022-10-15T06:15:13;55.45;;;35.00;;
41683;SDS011;27369;52.030;4.586;2022-10-15T06:17:39;54.97;;;34.03;;
41683;SDS011;27369;52.030;4.586;2022-10-15T06:20:06;49.65;;;32.42;;
41683;SDS011;27369;52.030;4.586;2022-10-15T06:22:32;46.38;;;31.42;;
41683;SDS011;27369;52.030;4.586;2022-10-15T06:24:58;53.35;;;32.65;;
41683;SDS011;27369;52.030;4.586;2022-10-15T06:27:23;54.95;;;34.33;;
41683;SDS011;27369;52.030;4.586;2022-10-15T06:29:48;55.05;;;32.47;;
41683;SDS011;27369;52.030;4.586;2022-10-15T06:32:14;50.58;;;32.35;;
41683;SDS011;27369;52.030;4.586;2022-10-15T06:34:39;54.33;;;32.15;;
41683;SDS011;27369;52.030;4.586;2022-10-15T06:37:05;52.08;;;32.17;;
41683;SDS011;27369;52.030;4.586;2022-10-15T06:39:30;51.38;;;32.22;;
41683;SDS011;27369;52.030;4.586;2022-10-15T06:41:55;54.10;;;31.35;;
41683;SDS011;27369;52.030;4.586;2022-10-15T06:44:21;53.38;;;32.13;;
41683;SDS011;27369;52.030;4.586;2022-10-15T06:46:46;54.58;;;30.77;;
41683;SDS011;27369;52.030;4.586;2022-10-15T06:49:12;56.42;;;32.05;;
41683;SDS011;27369;52.030;4.586;2022-10-15T06:51:37;59.65;;;33.53;;
41683;SDS011;27369;52.030;4.586;2022-10-15T06:54:03;61.55;;;33.83;;
41683;SDS011;27369;52.030;4.586;2022-10-15T06:56:28;58.20;;;32.53;;
41683;SDS011;27369;52.030;4.586;2022-10-15T06:58:54;63.65;;;34.03;;
41683;SDS011;27369;52.030;4.586;2022-10-15T07:01:19;65.65;;;35.42;;
41683;SDS011;27369;52.030;4.586;2022-10-15T07:03:47;63.58;;;34.45;;
41683;SDS011;27369;52.030;4.586;2022-10-15T07:06:14;70.15;;;37.83;;
41683;SDS011;27369;52.030;4.586;2022-10-15T07:08:39;66.82;;;37.70;;
41683;SDS011;27369;52.030;4.586;2022-10-15T07:11:05;72.75;;;39.63;;
41683;SDS011;27369;52.030;4.586;2022-10-15T07:13:33;61.28;;;39.33;;
41683;SDS011;27369;52.030;4.586;2022-10-15T07:16:05;60.70;;;38.15;;
41683;SDS011;27369;52.030;4.586;2022-10-15T07:18:33;61.67;;;38.40;;
41683;SDS011;27369;52.030;4.586;2022-10-15T07:20:59;59.90;;;37.95;;
41683;SDS011;27369;52.030;4.586;2022-10-15T07:23:25;59.40;;;34.92;;
41683;SDS011;27369;52.030;4.586;2022-10-15T07:25:51;55.33;;;34.83;;
41683;SDS011;27369;52.030;4.586;2022-10-15T07:28:16;57.97;;;36.00;;
41683;SDS011;27369;52.030;4.586;2022-10-15T07:30:42;64.03;;;38.70;;
41683;SDS011;27369;52.030;4.586;2022-10-15T07:33:07;68.03;;;39.42;;
41683;SDS011;27369;52.030;4.586;2022-10-15T07:35:33;75.75;;;40.55;;
41683;SDS011;27369;52.030;4.586;2022-10-15T07:37:59;83.05;;;43.25;;
41683;SDS011;27369;52.030;4.586;2022-10-15T07:40:26;85.43;;;42.95;;
41683;SDS011;27369;52.030;4.586;2022-10-15T07:42:52;88.63;;;46.25;;
41683;SDS011;27369;52.030;4.586;2022-10-15T07:45:21;86.32;;;43.00;;
41683;SDS011;27369;52.030;4.586;2022-10-15T07:47:47;82.35;;;42.72;;
41683;SDS011;27369;52.030;4.586;2022-10-15T07:50:12;98.93;;;47.60;;
41683;SDS011;27369;52.030;4.586;2022-10-15T07:52:38;93.47;;;45.45;;
41683;SDS011;27369;52.030;4.586;2022-10-15T07:55:03;90.32;;;45.15;;
41683;SDS011;27369;52.030;4.586;2022-10-15T07:57:29;85.05;;;43.42;;
41683;SDS011;27369;52.030;4.586;2022-10-15T07:59:54;81.03;;;42.58;;
41683;SDS011;27369;52.030;4.586;2022-10-15T08:02:20;73.05;;;38.92;;
41683;SDS011;27369;52.030;4.586;2022-10-15T08:04:46;70.32;;;40.15;;
41683;SDS011;27369;52.030;4.586;2022-10-15T08:07:12;75.50;;;38.58;;
41683;SDS011;27369;52.030;4.586;2022-10-15T08:09:37;63.15;;;37.15;;
41683;SDS011;27369;52.030;4.586;2022-10-15T08:12:03;62.10;;;37.13;;
41683;SDS011;27369;52.030;4.586;2022-10-15T08:14:31;61.80;;;38.28;;
41683;SDS011;27369;52.030;4.586;2022-10-15T08:16:57;59.85;;;35.50;;
41683;SDS011;27369;52.030;4.586;2022-10-15T08:19:22;53.75;;;34.97;;
41683;SDS011;27369;52.030;4.586;2022-10-15T08:21:48;52.58;;;33.80;;
41683;SDS011;27369;52.030;4.586;2022-10-15T08:24:13;55.67;;;36.83;;
41683;SDS011;27369;52.030;4.586;2022-10-15T08:26:39;49.03;;;34.47;;
41683;SDS011;27369;52.030;4.586;2022-10-15T08:29:04;43.00;;;31.38;;
41683;SDS011;27369;52.030;4.586;2022-10-15T08:31:30;41.88;;;29.42;;
41683;SDS011;27369;52.030;4.586;2022-10-15T08:33:59;37.13;;;28.13;;
41683;SDS011;27369;52.030;4.586;2022-10-15T08:36:25;36.03;;;27.65;;
41683;SDS011;27369;52.030;4.586;2022-10-15T08:38:50;29.67;;;25.42;;
41683;SDS011;27369;52.030;4.586;2022-10-15T08:41:21;29.85;;;24.13;;
41683;SDS011;27369;52.030;4.586;2022-10-15T08:43:53;30.88;;;24.17;;
41683;SDS011;27369;52.030;4.586;2022-10-15T08:46:20;28.13;;;22.42;;
41683;SDS011;27369;52.030;4.586;2022-10-15T08:48:53;31.35;;;24.25;;
41683;SDS011;27369;52.030;4.586;2022-10-15T08:51:21;28.52;;;23.63;;
41683;SDS011;27369;52.030;4.586;2022-10-15T08:53:50;26.77;;;22.20;;
41683;SDS011;27369;52.030;4.586;2022-10-15T08:56:33;23.92;;;20.40;;
41683;SDS011;27369;52.030;4.586;2022-10-15T08:59:16;25.17;;;20.08;;
41683;SDS011;27369;52.030;4.586;2022-10-15T09:02:02;21.83;;;18.60;;
41683;SDS011;27369;52.030;4.586;2022-10-15T09:04:48;24.30;;;18.25;;
41683;SDS011;27369;52.030;4.586;2022-10-15T09:07:29;21.27;;;18.52;;
41683;SDS011;27369;52.030;4.586;2022-10-15T09:10:04;19.77;;;17.55;;
41683;SDS011;27369;52.030;4.586;2022-10-15T09:15:50;23.80;;;17.73;;
41683;SDS011;27369;52.030;4.586;2022-10-15T09:18:22;22.55;;;18.58;;
41683;SDS011;27369;52.030;4.586;2022-10-15T09:20:49;23.38;;;17.25;;
41683;SDS011;27369;52.030;4.586;2022-10-15T09:23:20;22.10;;;17.77;;
41683;SDS011;27369;52.030;4.586;2022-10-15T09:31:25;20.48;;;17.10;;
41683;SDS011;27369;52.030;4.586;2022-10-15T09:34:13;19.98;;;17.70;;
41683;SDS011;27369;52.030;4.586;2022-10-15T09:36:49;21.83;;;17.10;;
41683;SDS011;27369;52.030;4.586;2022-10-15T09:44:40;19.35;;;15.73;;
41683;SDS011;27369;52.030;4.586;2022-10-15T09:47:14;19.85;;;16.83;;
41683;SDS011;27369;52.030;4.586;2022-10-15T09:49:47;19.88;;;17.02;;
41683;SDS011;27369;52.030;4.586;2022-10-15T09:58:22;18.42;;;15.43;;
41683;SDS011;27369;52.030;4.586;2022-10-15T10:03:27;16.92;;;14.25;;
41683;SDS011;27369;52.030;4.586;2022-10-15T10:06:02;17.00;;;14.30;;
41683;SDS011;27369;52.030;4.586;2022-10-15T10:08:28;15.90;;;12.55;;
41683;SDS011;27369;52.030;4.586;2022-10-15T10:11:02;15.73;;;13.20;;
41683;SDS011;27369;52.030;4.586;2022-10-15T10:13:31;18.55;;;13.82;;
41683;SDS011;27369;52.030;4.586;2022-10-15T10:16:05;16.67;;;12.57;;
41683;SDS011;27369;52.030;4.586;2022-10-15T10:18:34;14.93;;;11.23;;
41683;SDS011;27369;52.030;4.586;2022-10-15T10:21:05;13.65;;;11.13;;
41683;SDS011;27369;52.030;4.586;2022-10-15T10:23:44;12.95;;;10.35;;
41683;SDS011;27369;52.030;4.586;2022-10-15T10:26:10;14.60;;;10.38;;
41683;SDS011;27369;52.030;4.586;2022-10-15T10:31:07;12.70;;;9.88;;
41683;SDS011;27369;52.030;4.586;2022-10-15T10:33:44;21.15;;;11.10;;
41683;SDS011;27369;52.030;4.586;2022-10-15T10:36:23;12.15;;;9.88;;
41683;SDS011;27369;52.030;4.586;2022-10-15T10:39:05;10.85;;;8.73;;
41683;SDS011;27369;52.030;4.586;2022-10-15T10:44:28;11.93;;;9.20;;
41683;SDS011;27369;52.030;4.586;2022-10-15T10:49:39;9.43;;;7.43;;
41683;SDS011;27369;52.030;4.586;2022-10-15T10:55:20;8.82;;;7.47;;
41683;SDS011;27369;52.030;4.586;2022-10-15T10:57:56;8.68;;;7.28;;
41683;SDS011;27369;52.030;4.586;2022-10-15T11:00:43;9.10;;;7.68;;
41683;SDS011;27369;52.030;4.586;2022-10-15T11:05:58;9.30;;;7.63;;
41683;SDS011;27369;52.030;4.586;2022-10-15T11:22:18;9.32;;;7.32;;
41683;SDS011;27369;52.030;4.586;2022-10-15T11:27:57;8.73;;;7.70;;
41683;SDS011;27369;52.030;4.586;2022-10-15T11:35:50;8.80;;;7.90;;
41683;SDS011;27369;52.030;4.586;2022-10-15T11:38:37;9.05;;;7.75;;
41683;SDS011;27369;52.030;4.586;2022-10-15T11:43:43;9.38;;;8.40;;
41683;SDS011;27369;52.030;4.586;2022-10-15T11:46:23;9.45;;;8.40;;
41683;SDS011;27369;52.030;4.586;2022-10-15T11:49:17;8.73;;;7.78;;
41683;SDS011;27369;52.030;4.586;2022-10-15T11:54:22;10.40;;;8.98;;
41683;SDS011;27369;52.030;4.586;2022-10-15T11:56:54;10.98;;;9.80;;
41683;SDS011;27369;52.030;4.586;2022-10-15T12:02:31;12.55;;;11.25;;
41683;SDS011;27369;52.030;4.586;2022-10-15T12:05:04;12.68;;;11.48;;
41683;SDS011;27369;52.030;4.586;2022-10-15T12:07:36;14.40;;;12.90;;
41683;SDS011;27369;52.030;4.586;2022-10-15T12:15:14;9.98;;;8.93;;
41683;SDS011;27369;52.030;4.586;2022-10-15T12:20:23;8.32;;;7.53;;
41683;SDS011;27369;52.030;4.586;2022-10-15T12:30:31;7.65;;;6.20;;
41683;SDS011;27369;52.030;4.586;2022-10-15T12:32:58;7.10;;;5.95;;
41683;SDS011;27369;52.030;4.586;2022-10-15T12:35:49;6.57;;;5.90;;
41683;SDS011;27369;52.030;4.586;2022-10-15T12:38:39;6.38;;;5.05;;
41683;SDS011;27369;52.030;4.586;2022-10-15T12:41:08;6.28;;;5.68;;
41683;SDS011;27369;52.030;4.586;2022-10-15T12:43:37;6.85;;;5.70;;
41683;SDS011;27369;52.030;4.586;2022-10-15T12:46:07;5.18;;;4.68;;
41683;SDS011;27369;52.030;4.586;2022-10-15T12:53:49;4.30;;;3.80;;
41683;SDS011;27369;52.030;4.586;2022-10-15T12:58:45;3.70;;;3.40;;
41683;SDS011;27369;52.030;4.586;2022-10-15T13:08:47;4.53;;;3.50;;
41683;SDS011;27369;52.030;4.586;2022-10-15T13:11:17;3.63;;;3.25;;
41683;SDS011;27369;52.030;4.586;2022-10-15T13:13:48;4.22;;;3.10;;
41683;SDS011;27369;52.030;4.586;2022-10-15T13:16:16;4.28;;;2.70;;
41683;SDS011;27369;52.030;4.586;2022-10-15T13:21:13;2.03;;;1.38;;
41683;SDS011;27369;52.030;4.586;2022-10-15T13:23:43;1.60;;;1.00;;
41683;SDS011;27369;52.030;4.586;2022-10-15T13:28:44;3.10;;;0.60;;
41683;SDS011;27369;52.030;4.586;2022-10-15T13:31:17;1.52;;;0.40;;
41683;SDS011;27369;52.030;4.586;2022-10-15T13:33:44;1.80;;;0.60;;
41683;SDS011;27369;52.030;4.586;2022-10-15T13:36:20;3.88;;;0.52;;
41683;SDS011;27369;52.030;4.586;2022-10-15T13:39:07;1.15;;;0.40;;
41683;SDS011;27369;52.030;4.586;2022-10-15T13:41:45;2.22;;;0.60;;
41683;SDS011;27369;52.030;4.586;2022-10-15T13:44:21;1.33;;;0.40;;
41683;SDS011;27369;52.030;4.586;2022-10-15T13:46:47;1.10;;;0.28;;
41683;SDS011;27369;52.030;4.586;2022-10-15T13:49:13;1.38;;;0.45;;
41683;SDS011;27369;52.030;4.586;2022-10-15T13:51:40;1.42;;;0.30;;
41683;SDS011;27369;52.030;4.586;2022-10-15T13:54:13;2.92;;;0.55;;
41683;SDS011;27369;52.030;4.586;2022-10-15T13:56:42;2.63;;;0.57;;
41683;SDS011;27369;52.030;4.586;2022-10-15T13:59:16;2.83;;;0.50;;
41683;SDS011;27369;52.030;4.586;2022-10-15T14:01:44;5.45;;;0.90;;
41683;SDS011;27369;52.030;4.586;2022-10-15T14:04:16;1.73;;;0.52;;
41683;SDS011;27369;52.030;4.586;2022-10-15T14:09:46;3.13;;;0.60;;
41683;SDS011;27369;52.030;4.586;2022-10-15T14:12:12;3.17;;;0.60;;
41683;SDS011;27369;52.030;4.586;2022-10-15T14:14:41;3.15;;;0.80;;
41683;SDS011;27369;52.030;4.586;2022-10-15T14:17:21;3.03;;;0.50;;
41683;SDS011;27369;52.030;4.586;2022-10-15T14:19:52;6.25;;;1.20;;
41683;SDS011;27369;52.030;4.586;2022-10-15T14:22:22;2.60;;;0.50;;
41683;SDS011;27369;52.030;4.586;2022-10-15T14:24:49;3.80;;;0.75;;
41683;SDS011;27369;52.030;4.586;2022-10-15T14:27:22;1.60;;;0.38;;
41683;SDS011;27369;52.030;4.586;2022-10-15T14:29:53;4.13;;;0.55;;
41683;SDS011;27369;52.030;4.586;2022-10-15T14:32:24;2.72;;;0.60;;
41683;SDS011;27369;52.030;4.586;2022-10-15T14:35:24;2.58;;;0.52;;
41683;SDS011;27369;52.030;4.586;2022-10-15T14:40:34;2.85;;;0.75;;
41683;SDS011;27369;52.030;4.586;2022-10-15T14:43:02;3.60;;;0.77;;
41683;SDS011;27369;52.030;4.586;2022-10-15T14:45:53;3.28;;;0.70;;
41683;SDS011;27369;52.030;4.586;2022-10-15T14:48:22;3.03;;;0.50;;
41683;SDS011;27369;52.030;4.586;2022-10-15T14:50:50;3.67;;;0.60;;
41683;SDS011;27369;52.030;4.586;2022-10-15T14:53:18;2.25;;;0.50;;
41683;SDS011;27369;52.030;4.586;2022-10-15T14:55:49;3.17;;;0.40;;
41683;SDS011;27369;52.030;4.586;2022-10-15T14:58:18;3.70;;;0.40;;
41683;SDS011;27369;52.030;4.586;2022-10-15T15:00:46;4.32;;;0.50;;
41683;SDS011;27369;52.030;4.586;2022-10-15T15:03:16;3.67;;;0.68;;
41683;SDS011;27369;52.030;4.586;2022-10-15T15:08:11;2.22;;;1.02;;
41683;SDS011;27369;52.030;4.586;2022-10-15T15:10:36;3.40;;;0.50;;
41683;SDS011;27369;52.030;4.586;2022-10-15T15:13:02;2.05;;;0.68;;
41683;SDS011;27369;52.030;4.586;2022-10-15T15:15:27;6.07;;;1.10;;
41683;SDS011;27369;52.030;4.586;2022-10-15T15:17:53;6.28;;;2.25;;
41683;SDS011;27369;52.030;4.586;2022-10-15T15:20:19;5.63;;;1.92;;
41683;SDS011;27369;52.030;4.586;2022-10-15T15:22:46;12.50;;;8.52;;
41683;SDS011;27369;52.030;4.586;2022-10-15T15:25:18;4.50;;;1.63;;
41683;SDS011;27369;52.030;4.586;2022-10-15T15:27:55;5.80;;;1.52;;
41683;SDS011;27369;52.030;4.586;2022-10-15T15:30:22;8.40;;;4.50;;
41683;SDS011;27369;52.030;4.586;2022-10-15T15:32:49;14.82;;;10.70;;
41683;SDS011;27369;52.030;4.586;2022-10-15T15:37:40;2.50;;;0.90;;
41683;SDS011;27369;52.030;4.586;2022-10-15T15:40:06;2.15;;;1.23;;
41683;SDS011;27369;52.030;4.586;2022-10-15T15:42:32;3.65;;;1.90;;
41683;SDS011;27369;52.030;4.586;2022-10-15T15:44:57;6.70;;;3.33;;
41683;SDS011;27369;52.030;4.586;2022-10-15T15:47:22;4.97;;;1.48;;
41683;SDS011;27369;52.030;4.586;2022-10-15T15:49:48;3.28;;;1.15;;
41683;SDS011;27369;52.030;4.586;2022-10-15T15:52:13;2.83;;;0.70;;
41683;SDS011;27369;52.030;4.586;2022-10-15T15:54:41;6.93;;;0.88;;
41683;SDS011;27369;52.030;4.586;2022-10-15T15:57:07;6.20;;;1.60;;
41683;SDS011;27369;52.030;4.586;2022-10-15T15:59:32;10.65;;;5.10;;
41683;SDS011;27369;52.030;4.586;2022-10-15T16:01:58;7.72;;;1.40;;
41683;SDS011;27369;52.030;4.586;2022-10-15T16:04:23;6.75;;;0.88;;
41683;SDS011;27369;52.030;4.586;2022-10-15T16:06:48;7.13;;;0.85;;
41683;SDS011;27369;52.030;4.586;2022-10-15T16:09:15;5.47;;;0.80;;
41683;SDS011;27369;52.030;4.586;2022-10-15T16:11:41;6.85;;;1.58;;
41683;SDS011;27369;52.030;4.586;2022-10-15T16:14:06;7.35;;;1.27;;
41683;SDS011;27369;52.030;4.586;2022-10-15T16:16:32;11.57;;;1.90;;
41683;SDS011;27369;52.030;4.586;2022-10-15T16:18:57;7.65;;;1.70;;
41683;SDS011;27369;52.030;4.586;2022-10-15T16:21:23;5.68;;;1.42;;
41683;SDS011;27369;52.030;4.586;2022-10-15T16:23:49;5.85;;;1.50;;
41683;SDS011;27369;52.030;4.586;2022-10-15T16:26:15;8.77;;;1.30;;
41683;SDS011;27369;52.030;4.586;2022-10-15T16:28:41;5.35;;;1.63;;
41683;SDS011;27369;52.030;4.586;2022-10-15T16:31:16;7.47;;;1.60;;
41683;SDS011;27369;52.030;4.586;2022-10-15T16:33:42;4.18;;;0.77;;
41683;SDS011;27369;52.030;4.586;2022-10-15T16:36:08;8.05;;;1.45;;
41683;SDS011;27369;52.030;4.586;2022-10-15T16:38:33;8.30;;;1.05;;
41683;SDS011;27369;52.030;4.586;2022-10-15T16:40:59;5.70;;;1.00;;
41683;SDS011;27369;52.030;4.586;2022-10-15T16:43:24;7.78;;;1.67;;
41683;SDS011;27369;52.030;4.586;2022-10-15T16:45:56;7.82;;;1.50;;
41683;SDS011;27369;52.030;4.586;2022-10-15T16:48:23;8.38;;;1.63;;
41683;SDS011;27369;52.030;4.586;2022-10-15T16:51:03;9.07;;;1.40;;
41683;SDS011;27369;52.030;4.586;2022-10-15T16:53:30;5.72;;;1.30;;
41683;SDS011;27369;52.030;4.586;2022-10-15T16:56:07;8.77;;;1.65;;
41683;SDS011;27369;52.030;4.586;2022-10-15T16:58:35;9.88;;;1.02;;
41683;SDS011;27369;52.030;4.586;2022-10-15T17:01:02;9.85;;;1.40;;
41683;SDS011;27369;52.030;4.586;2022-10-15T17:03:31;14.05;;;1.75;;
41683;SDS011;27369;52.030;4.586;2022-10-15T17:05:58;8.85;;;1.63;;
41683;SDS011;27369;52.030;4.586;2022-10-15T17:08:27;12.25;;;2.45;;